Time;durP1;ratioP1;P1;durP2;ratioP2;P2;SDS_P1;SDS_P2;PMS_P1;PMS_P2;Temp;Humidity;BMP_temperature;BMP_pressure;BME280_temperature;BME280_humidity;BME280_pressure;Samples;Min_cycle;Max_cycle;Signal;HPM_P1;HPM_P2
2024/02/25 00:02:25;;;;;;;;;10.00;8.75;;;;;16.95;58.68;101216.16;146710;564;46012;-70
2024/02/25 00:05:41;;;;;;;;;12.25;11.25;;;;;17.01;57.06;101208.50;146627;605;46012;-72
2024/02/25 00:08:38;;;;;;;;;13.50;9.00;;;;;17.03;57.13;101210.31;146620;666;46021;-71
2024/02/25 00:11:42;;;;;;;;;12.50;9.50;;;;;17.01;57.32;101204.16;146623;597;46014;-71
2024/02/25 00:14:49;;;;;;;;;10.75;10.75;;;;;17.09;57.24;101210.50;146628;577;46020;-67
2024/02/25 00:17:44;;;;;;;;;11.25;9.25;;;;;17.12;56.88;101228.06;146615;577;47016;-80
2024/02/25 00:20:49;;;;;;;;;10.25;9.00;;;;;17.11;56.67;101228.91;146625;593;46020;-74
2024/02/25 00:23:50;;;;;;;;;9.50;9.50;;;;;17.09;57.30;101241.94;146627;689;46012;-75
2024/02/25 00:26:48;;;;;;;;;9.33;8.00;;;;;17.05;58.23;101247.06;146627;572;46020;-70
2024/02/25 00:29:45;;;;;;;;;10.25;9.25;;;;;17.06;57.92;101246.19;146625;585;46016;-74
2024/02/25 00:32:42;;;;;;;;;9.50;7.50;;;;;16.99;57.56;101225.88;146629;628;46012;-77
2024/02/25 00:35:47;;;;;;;;;10.50;9.00;;;;;15.43;57.25;100950.16;146627;668;46012;-75
2024/02/25 00:38:49;;;;;;;;;11.50;8.25;;;;;17.09;57.11;101226.22;146631;575;46010;-77
2024/02/25 00:41:47;;;;;;;;;13.00;10.50;;;;;17.10;57.14;101229.72;146621;569;46014;-73
2024/02/25 00:44:48;;;;;;;;;11.00;10.00;;;;;17.09;57.43;101226.22;146623;628;46010;-76
2024/02/25 00:47:43;;;;;;;;;9.25;9.25;;;;;17.06;57.64;101231.38;146623;714;45017;-69
2024/02/25 00:50:38;;;;;;;;;15.50;10.00;;;;;17.05;58.21;101241.81;146630;586;46010;-72
2024/02/25 00:53:33;;;;;;;;;12.00;9.75;;;;;17.04;57.71;101246.16;146617;585;47012;-77
2024/02/25 00:56:28;;;;;;;;;11.50;10.75;;;;;17.03;57.59;101246.09;146629;565;46010;-74
2024/02/25 00:59:30;;;;;;;;;9.75;8.75;;;;;17.04;57.22;101233.06;146617;641;46016;-71
2024/02/25 01:02:30;;;;;;;;;10.75;8.00;;;;;16.93;57.47;101225.69;146620;662;48010;-69
2024/02/25 01:05:42;;;;;;;;;12.00;10.25;;;;;17.03;57.72;101233.00;146615;607;46016;-73
2024/02/25 01:08:45;;;;;;;;;8.75;8.50;;;;;17.05;56.69;101228.72;146621;656;46021;-74
2024/02/25 01:11:59;;;;;;;;;;;;;;;;;;;;;
2024/02/25 01:15:02;;;;;;;;;10.25;8.00;;;;;17.07;57.45;101222.69;146629;587;45020;-71
2024/02/25 01:17:59;;;;;;;;;13.50;11.00;;;;;15.41;57.23;100930.91;146620;586;46913;-70
2024/02/25 01:21:04;;;;;;;;;10.75;9.25;;;;;17.08;56.92;101220.94;146625;605;46010;-74
2024/02/25 01:23:57;;;;;;;;;12.50;9.75;;;;;17.08;56.63;101220.94;146619;613;47014;-70
2024/02/25 01:26:54;;;;;;;;;13.00;10.75;;;;;17.11;57.19;101222.78;146624;597;46020;-73
2024/02/25 01:29:49;;;;;;;;;15.25;13.50;;;;;17.12;56.36;101211.47;146617;673;46016;-75
2024/02/25 01:33:08;;;;;;;;;10.50;9.00;;;;;17.13;56.42;101198.38;146624;592;46010;-73
2024/02/25 01:36:26;;;;;;;;;13.00;12.00;;;;;17.18;55.59;101201.19;146620;702;46012;-73
2024/02/25 01:39:44;;;;;;;;;9.75;9.25;;;;;17.19;55.88;101197.69;146619;689;46020;-73
2024/02/25 01:42:42;;;;;;;;;11.25;7.25;;;;;17.17;56.00;101199.41;146617;564;47014;-73
2024/02/25 01:45:55;;;;;;;;;12.75;9.75;;;;;17.16;55.66;101190.63;146623;688;46011;-71
2024/02/25 01:48:52;;;;;;;;;10.00;9.00;;;;;17.15;55.81;101174.88;146619;609;46016;-72
2024/02/25 01:51:53;;;;;;;;;8.00;8.00;;;;;17.13;56.27;101168.69;146627;656;45020;-70
2024/02/25 01:54:49;;;;;;;;;15.25;11.75;;;;;17.11;55.97;101179.13;146619;570;46012;-73
2024/02/25 01:57:46;;;;;;;;;16.25;13.00;;;;;17.12;56.37;101174.78;146627;584;45020;-72
2024/02/25 02:00:43;;;;;;;;;12.50;9.00;;;;;17.08;56.50;101166.81;146617;647;46913;-67
2024/02/25 02:03:41;;;;;;;;;10.00;9.25;;;;;17.06;56.67;101168.50;146622;563;46010;-70
2024/02/25 02:06:37;;;;;;;;;16.25;11.50;;;;;17.08;56.32;101158.97;146621;589;46913;-69
2024/02/25 02:09:47;;;;;;;;;;;;;;;;;;;;;
2024/02/25 02:13:06;;;;;;;;;12.50;11.25;;;;;17.11;55.92;101165.16;146618;577;46016;-67
2024/02/25 02:16:20;;;;;;;;;12.00;10.50;;;;;17.11;56.11;101157.28;146620;611;46020;-71
2024/02/25 02:19:23;;;;;;;;;11.50;9.00;;;;;17.09;56.22;101146.75;146617;573;46016;-70
2024/02/25 02:22:20;;;;;;;;;7.75;7.75;;;;;17.09;56.11;101165.97;146622;570;46020;-68
2024/02/25 02:25:26;;;;;;;;;10.00;8.75;;;;;17.07;55.45;101161.50;146617;597;46016;-67
2024/02/25 02:28:30;;;;;;;;;9.00;9.00;;;;;17.09;55.65;101165.97;146624;587;46020;-71
2024/02/25 02:31:41;;;;;;;;;7.00;6.75;;;;;17.09;55.28;101157.22;146618;620;46012;-71
2024/02/25 02:34:35;;;;;;;;;12.00;10.00;;;;;17.11;55.39;101158.16;146622;628;46010;-68
2024/02/25 02:37:33;;;;;;;;;12.00;10.00;;;;;17.13;54.75;101143.38;146616;566;46017;-72
2024/02/25 02:40:28;;;;;;;;;9.25;9.25;;;;;17.13;54.92;101127.63;146620;664;46012;-71
2024/02/25 02:43:32;;;;;;;;;11.75;11.75;;;;;17.16;54.38;101129.47;146622;660;46012;-72
2024/02/25 02:46:31;;;;;;;;;10.00;10.00;;;;;17.20;55.15;101160.19;146621;583;46010;-74
2024/02/25 02:49:29;;;;;;;;;8.75;8.75;;;;;17.20;54.75;101154.94;146615;645;46016;-74
2024/02/25 02:52:25;;;;;;;;;7.00;7.00;;;;;17.17;55.38;101157.47;146621;650;46021;-72
2024/02/25 02:55:22;;;;;;;;;11.00;10.75;;;;;17.16;54.61;101163.53;146617;569;46016;-71
2024/02/25 02:58:32;;;;;;;;;10.75;10.00;;;;;17.09;54.39;101160.72;146623;607;46010;-72
2024/02/25 03:01:55;;;;;;;;;14.75;10.00;;;;;17.12;56.13;101177.41;146612;566;46911;-68
2024/02/25 03:04:56;;;;;;;;;12.00;10.75;;;;;17.09;55.50;101176.44;146618;576;46020;-71
2024/02/25 03:07:53;;;;;;;;;10.00;10.00;;;;;17.09;56.22;101175.56;146620;637;46013;-72
2024/02/25 03:10:49;;;;;;;;;11.75;11.00;;;;;17.07;56.14;101180.78;146617;629;46020;-71
2024/02/25 03:14:00;;;;;;;;;11.75;10.50;;;;;17.08;56.25;101185.16;146619;636;46017;-71
2024/02/25 03:16:55;;;;;;;;;11.00;11.00;;;;;17.06;56.11;101175.47;146621;566;46012;-71
2024/02/25 03:19:55;;;;;;;;;11.50;10.75;;;;;17.04;56.30;101172.81;146616;631;47012;-73
2024/02/25 03:22:49;;;;;;;;;12.00;11.00;;;;;17.01;55.63;101172.72;146619;608;45021;-72
2024/02/25 03:25:51;;;;;;;;;11.50;9.75;;;;;17.00;55.66;101170.03;146617;596;46016;-72
2024/02/25 03:28:54;;;;;;;;;11.00;10.50;;;;;17.01;56.06;101171.81;146623;641;46020;-72
2024/02/25 03:31:57;;;;;;;;;10.50;9.75;;;;;16.98;56.72;101169.09;146614;619;47913;-74
2024/02/25 03:35:07;;;;;;;;;11.00;10.00;;;;;16.92;55.85;101180.28;146619;566;46020;-74
2024/02/25 03:38:12;;;;;;;;;11.75;10.75;;;;;16.85;56.63;101173.03;146618;569;47012;-74
2024/02/25 03:41:04;;;;;;;;;11.00;9.00;;;;;16.76;56.40;101168.41;146619;575;46020;-74
2024/02/25 03:43:59;;;;;;;;;14.00;13.00;;;;;16.71;56.86;101163.81;146616;570;46913;-70
2024/02/25 03:47:04;;;;;;;;;11.25;10.00;;;;;16.68;56.61;101161.97;146620;628;46020;-73
2024/02/25 03:49:57;;;;;;;;;14.75;12.00;;;;;16.68;56.63;101172.44;146618;612;46038;-71
2024/02/25 03:53:02;;;;;;;;;11.50;10.25;;;;;16.71;55.74;101176.91;146616;566;47010;-71
2024/02/25 03:56:06;;;;;;;;;13.50;10.25;;;;;16.73;56.23;101175.19;146619;593;46012;-73
2024/02/25 03:59:04;;;;;;;;;12.25;8.25;;;;;15.12;56.52;100895.06;146618;571;46021;-71
2024/02/25 04:01:59;;;;;;;;;11.50;8.50;;;;;16.76;56.29;101168.41;146617;573;46016;-70
2024/02/25 04:05:07;;;;;;;;;11.25;9.75;;;;;16.79;55.79;101163.25;146620;651;46020;-67
2024/02/25 04:08:18;;;;;;;;;14.25;9.75;;;;;14.88;55.48;100816.75;146619;610;45017;-69
2024/02/25 04:11:12;;;;;;;;;12.25;10.25;;;;;15.09;55.06;100851.44;146625;565;46010;-71
2024/02/25 04:14:12;;;;;;;;;11.75;10.50;;;;;16.77;55.27;101133.50;146618;708;46014;-70
2024/02/25 04:17:13;;;;;;;;;12.25;7.75;;;;;16.88;55.34;101143.44;146624;689;46010;-70
2024/02/25 04:20:15;;;;;;;;;12.50;10.25;;;;;16.82;55.56;101133.66;146618;640;46916;-70
2024/02/25 04:23:10;;;;;;;;;12.50;8.50;;;;;16.88;54.86;101139.06;146619;569;46020;-70
2024/02/25 04:26:14;;;;;;;;;12.00;11.00;;;;;16.87;54.64;101142.53;146615;651;46016;-70
2024/02/25 04:29:08;;;;;;;;;11.50;11.50;;;;;16.86;55.28;101140.78;146621;591;47012;-69
2024/02/25 04:32:07;;;;;;;;;13.25;10.25;;;;;16.82;54.85;101126.69;146619;569;46915;-71
2024/02/25 04:35:04;;;;;;;;;13.25;11.00;;;;;16.87;54.76;101137.31;146619;677;47010;-71
2024/02/25 04:38:03;;;;;;;;;13.00;10.50;;;;;16.93;54.83;101144.47;146619;610;46016;-70
2024/02/25 04:41:16;;;;;;;;;14.00;13.00;;;;;16.97;56.16;101149.84;146618;580;46020;-69
2024/02/25 04:44:13;;;;;;;;;21.00;19.00;;;;;16.92;56.98;101140.97;146618;613;46013;-70
2024/02/25 04:47:13;;;;;;;;;20.75;17.00;;;;;16.87;56.78;101142.53;146619;647;46037;-69
2024/02/25 04:50:24;;;;;;;;;;;;;;;;;;;;;
2024/02/25 04:53:17;;;;;;;;;20.25;18.25;;;;;16.73;57.89;101142.09;146619;597;46012;-69
2024/02/25 04:56:33;;;;;;;;;20.00;18.25;;;;;13.19;56.65;100536.78;146615;572;47015;-70
2024/02/25 04:59:37;;;;;;;;;22.50;19.50;;;;;16.63;58.39;101143.50;146615;590;46010;-69
2024/02/25 05:02:33;;;;;;;;;23.75;20.50;;;;;16.55;58.83;101128.37;146615;705;46016;-67
2024/02/25 05:05:34;;;;;;;;;21.00;19.75;;;;;16.42;58.55;101127.06;146619;604;46021;-67
2024/02/25 05:08:41;;;;;;;;;20.00;19.00;;;;;16.32;58.94;101132.81;146614;649;47032;-68
2024/02/25 05:11:37;;;;;;;;;17.25;16.00;;;;;14.42;59.10;100809.81;146619;703;46010;-68
2024/02/25 05:14:32;;;;;;;;;19.75;19.00;;;;;16.17;59.92;101138.44;146614;592;46017;-69
2024/02/25 05:17:29;;;;;;;;;19.00;15.75;;;;;16.12;59.27;101130.41;146617;600;46020;-69
2024/02/25 05:20:29;;;;;;;;;18.50;16.75;;;;;16.04;59.78;101120.50;146613;603;47014;-71
2024/02/25 05:23:26;;;;;;;;;23.25;21.50;;;;;16.07;59.65;101133.69;146618;582;45020;-71
2024/02/25 05:26:34;;;;;;;;;25.00;21.50;;;;;16.00;60.12;101140.44;146615;583;46016;-70
2024/02/25 05:29:43;;;;;;;;;21.00;20.75;;;;;15.94;60.56;101142.81;146618;564;46020;-69
2024/02/25 05:33:13;;;;;;;;;18.50;16.25;;;;;15.90;59.80;101146.19;146617;564;46012;-69
2024/02/25 05:36:11;;;;;;;;;28.00;25.25;;;;;15.86;59.99;101146.91;146618;596;46021;-69
2024/02/25 05:39:04;;;;;;;;;16.75;15.00;;;;;15.85;60.59;101143.38;146615;581;46016;-70
2024/02/25 05:41:59;;;;;;;;;15.50;13.75;;;;;15.86;59.54;101147.78;146617;605;46020;-69
2024/02/25 05:44:56;;;;;;;;;13.00;12.50;;;;;15.94;59.68;101141.09;146618;574;46016;-69
2024/02/25 05:48:01;;;;;;;;;11.75;10.50;;;;;16.06;59.08;101147.62;146620;585;46020;-69
2024/02/25 05:51:04;;;;;;;;;12.25;11.25;;;;;16.21;58.54;101149.88;146616;608;46016;-71
2024/02/25 05:54:01;;;;;;;;;12.25;12.00;;;;;16.39;57.74;101151.41;146619;727;46020;-70
2024/02/25 05:57:04;;;;;;;;;13.25;11.25;;;;;16.68;57.40;101146.25;146617;567;46031;-69
2024/02/25 06:00:03;;;;;;;;;11.75;10.75;;;;;17.15;56.53;101132.94;146620;588;46012;-71
2024/02/25 06:03:18;;;;;;;;;16.75;14.50;;;;;17.47;55.78;101140.03;146629;630;46012;-71
2024/02/25 06:06:24;;;;;;;;;14.25;11.75;;;;;16.05;55.02;100868.59;146632;570;45021;-72
2024/02/25 06:09:27;;;;;;;;;16.75;12.75;;;;;17.64;54.86;101139.66;146632;576;46016;-72
2024/02/25 06:12:38;;;;;;;;;12.75;10.00;;;;;17.52;53.95;101141.06;146634;583;45012;-76
2024/02/25 06:15:31;;;;;;;;;14.00;13.25;;;;;17.41;54.48;101138.97;146632;580;46014;-72
2024/02/25 06:18:27;;;;;;;;;13.75;13.50;;;;;17.29;54.54;101137.78;146636;702;45020;-71
2024/02/25 06:21:26;;;;;;;;;13.25;12.00;;;;;17.22;54.92;101130.53;146633;571;45016;-70
2024/02/25 06:24:30;;;;;;;;;17.00;14.25;;;;;17.17;55.34;101131.28;146635;575;45012;-72
2024/02/25 06:27:22;;;;;;;;;14.00;12.75;;;;;17.15;55.35;101125.97;146630;582;45914;-70
2024/02/25 06:30:19;;;;;;;;;21.50;15.00;;;;;17.09;55.05;101115.31;146634;579;45020;-72
2024/02/25 06:33:17;;;;;;;;;18.75;16.50;;;;;17.22;54.61;101129.66;146633;564;45016;-71
2024/02/25 06:36:45;;;;;;;;;18.50;16.75;;;;;17.26;54.72;101126.31;146635;635;45010;-72
2024/02/25 06:39:41;;;;;;;;;17.00;13.00;;;;;17.35;54.15;101130.91;146631;574;45914;-71
2024/02/25 06:42:38;;;;;;;;;16.00;13.75;;;;;17.48;53.43;101133.09;146635;584;45021;-72
2024/02/25 06:45:36;;;;;;;;;13.00;11.00;;;;;17.52;52.85;101129.69;146634;635;45012;-69
2024/02/25 06:48:37;;;;;;;;;12.00;9.50;;;;;17.60;53.25;101132.53;146631;623;45011;-70
2024/02/25 06:51:33;;;;;;;;;11.50;9.25;;;;;17.63;52.93;101127.38;146632;647;45021;-70
2024/02/25 06:54:31;;;;;;;;;16.75;15.00;;;;;17.66;52.87;101127.47;146632;573;46872;-71
2024/02/25 06:57:26;;;;;;;;;17.00;15.50;;;;;17.69;52.77;101130.19;146629;580;45013;-72
2024/02/25 07:00:39;;;;;;;;;;;;;;;;;;;;;
2024/02/25 07:03:32;;;;;;;;;18.25;15.25;;;;;17.82;52.40;101124.50;146612;584;47015;-70
2024/02/25 07:06:29;;;;;;;;;13.00;11.25;;;;;17.90;52.08;101124.69;146617;601;46020;-70
2024/02/25 07:09:39;;;;;;;;;16.25;14.75;;;;;17.94;51.48;101119.59;146617;571;46016;-70
2024/02/25 07:12:37;;;;;;;;;15.75;14.75;;;;;17.95;51.21;101110.88;146619;640;46011;-69
2024/02/25 07:15:43;;;;;;;;;14.00;11.00;;;;;17.92;51.50;101110.78;146617;583;46037;-66
2024/02/25 07:18:42;;;;;;;;;15.50;15.00;;;;;17.88;51.55;101105.38;146617;587;46010;-71
2024/02/25 07:21:43;;;;;;;;;12.75;12.50;;;;;17.83;51.95;101104.41;146614;579;46016;-70
2024/02/25 07:24:46;;;;;;;;;14.50;13.00;;;;;17.76;52.06;101093.69;146617;705;46020;-69
2024/02/25 07:27:41;;;;;;;;;16.00;15.00;;;;;17.72;51.68;101101.41;146613;566;46028;-68
2024/02/25 07:30:41;;;;;;;;;17.75;16.25;;;;;17.71;51.43;101107.53;146619;577;46010;-69
2024/02/25 07:33:41;;;;;;;;;17.00;15.75;;;;;17.70;51.72;101097.87;146617;688;47015;-75
2024/02/25 07:36:46;;;;;;;;;21.75;19.00;;;;;17.71;53.35;101097.91;146619;576;46010;-75
2024/02/25 07:39:43;;;;;;;;;18.00;17.50;;;;;17.76;52.84;101104.19;146616;573;46012;-76
2024/02/25 07:42:38;;;;;;;;;25.25;22.50;;;;;17.82;53.69;101105.22;146619;564;46010;-69
2024/02/25 07:45:41;;;;;;;;;33.75;30.50;;;;;17.78;51.60;101093.75;146614;574;46012;-70
2024/02/25 07:48:37;;;;;;;;;33.75;30.00;;;;;17.82;52.40;101103.50;146615;622;46021;-70
2024/02/25 07:51:55;;;;;;;;;28.50;28.00;;;;;17.84;52.61;101106.16;146616;637;46016;-72
2024/02/25 07:55:09;;;;;;;;;30.50;28.25;;;;;17.83;53.40;101093.91;146618;573;46010;-70
2024/02/25 07:58:09;;;;;;;;;23.75;21.50;;;;;17.82;53.85;101097.34;146615;570;46911;-70
2024/02/25 08:01:10;;;;;;;;;25.50;23.00;;;;;17.83;54.06;101093.91;146620;645;46020;-68
2024/02/25 08:04:19;;;;;;;;;21.25;18.00;;;;;17.87;55.38;101095.75;146608;659;47029;-70
2024/02/25 08:07:14;;;;;;;;;17.00;13.50;;;;;17.65;56.63;101049.66;146618;631;46020;-70
2024/02/25 08:10:24;;;;;;;;;14.50;11.25;;;;;17.88;57.89;101081.78;146615;559;46015;-69
2024/02/25 08:13:27;;;;;;;;;12.75;12.25;;;;;17.84;58.25;101078.19;146620;585;46020;-70
2024/02/25 08:16:20;;;;;;;;;12.00;11.00;;;;;17.87;58.87;101080.00;146616;564;46012;-71
2024/02/25 08:19:26;;;;;;;;;9.75;9.75;;;;;17.87;58.66;101069.53;146619;566;46010;-70
2024/02/25 08:22:23;;;;;;;;;14.75;11.75;;;;;17.98;58.18;101078.59;146620;607;46012;-70
2024/02/25 08:25:21;;;;;;;;;14.75;13.50;;;;;18.06;56.42;101079.66;146619;650;46011;-68
2024/02/25 08:28:25;;;;;;;;;26.25;23.00;;;;;18.11;56.26;101071.91;146616;643;46012;-69
2024/02/25 08:31:23;;;;;;;;;16.75;12.50;;;;;18.21;54.10;101066.94;146621;580;46010;-70
2024/02/25 08:34:26;;;;;;;;;16.00;14.00;;;;;18.38;56.71;101066.47;146618;594;46017;-72
2024/02/25 08:37:22;;;;;;;;;11.25;10.25;;;;;18.50;58.11;101069.38;146618;613;46020;-71
2024/02/25 08:40:27;;;;;;;;;12.25;10.75;;;;;18.56;56.11;101080.03;146615;605;46016;-71
2024/02/25 08:43:35;;;;;;;;;14.75;12.00;;;;;18.58;56.82;101069.59;146619;571;46010;-69
2024/02/25 08:46:32;;;;;;;;;11.50;10.00;;;;;18.52;56.10;101064.19;146617;579;46012;-72
2024/02/25 08:49:57;;;;;;;;;15.25;12.25;;;;;18.62;56.78;101061.81;146620;612;47010;-71
2024/02/25 08:52:54;;;;;;;;;11.75;10.50;;;;;18.66;57.50;101049.63;146615;605;47014;-72
2024/02/25 08:55:48;;;;;;;;;12.25;11.50;;;;;18.73;56.89;101048.97;146620;661;46021;-72
2024/02/25 08:58:53;;;;;;;;;10.75;10.75;;;;;18.76;55.43;101049.03;146616;578;46037;-71
2024/02/25 09:02:13;;;;;;;;;16.25;14.00;;;;;18.75;54.99;101056.88;146619;590;46010;-71
2024/02/25 09:05:18;;;;;;;;;14.00;13.00;;;;;18.67;55.25;101051.44;146616;684;46916;-71
2024/02/25 09:08:27;;;;;;;;;13.75;12.00;;;;;18.62;54.87;101043.41;146620;580;46010;-72
2024/02/25 09:11:43;;;;;;;;;13.50;11.00;;;;;18.58;54.40;101056.47;146618;615;45016;-73
2024/02/25 09:14:52;;;;;;;;;12.50;11.25;;;;;18.47;55.61;101050.94;146622;618;46010;-71
2024/02/25 09:17:44;;;;;;;;;10.75;10.75;;;;;18.44;56.53;101054.41;146617;691;46016;-73
2024/02/25 09:20:58;;;;;;;;;11.50;10.25;;;;;18.35;55.88;101054.16;146623;581;46012;-72
2024/02/25 09:23:59;;;;;;;;;15.00;14.00;;;;;18.23;55.53;101041.63;146619;594;45016;-73
2024/02/25 09:27:14;;;;;;;;;15.50;13.50;;;;;18.12;54.95;101045.69;146621;606;46020;-73
2024/02/25 09:30:10;;;;;;;;;20.25;17.00;;;;;18.05;56.14;101045.50;146617;573;46016;-72
2024/02/25 09:33:08;;;;;;;;;14.25;12.25;;;;;17.93;54.70;101039.09;146618;606;46012;-72
2024/02/25 09:36:25;;;;;;;;;16.25;14.25;;;;;17.85;55.68;101029.22;146614;571;46016;-73
2024/02/25 09:39:18;;;;;;;;;18.25;16.50;;;;;17.85;56.91;101029.22;146618;628;45020;-72
2024/02/25 09:42:14;;;;;;;;;17.50;15.50;;;;;17.87;58.68;101022.31;146615;625;47012;-72
2024/02/25 09:45:16;;;;;;;;;19.25;16.75;;;;;17.81;60.99;101023.03;146616;569;47010;-74
2024/02/25 09:48:21;;;;;;;;;19.25;16.75;;;;;17.75;59.17;101018.47;146613;564;46916;-72
2024/02/25 09:51:18;;;;;;;;;15.75;14.00;;;;;17.74;59.74;101023.69;146615;580;46010;-72
2024/02/25 09:54:18;;;;;;;;;24.25;19.50;;;;;17.73;59.82;101009.69;146618;569;46016;-72
2024/02/25 09:57:17;;;;;;;;;21.25;17.50;;;;;17.79;57.70;101006.37;146620;564;45021;-73
2024/02/25 10:00:14;;;;;;;;;13.00;12.00;;;;;17.83;57.54;101004.72;146614;571;46912;-72
2024/02/25 10:03:14;;;;;;;;;19.25;17.75;;;;;17.88;56.41;101003.06;146612;573;47010;-72
2024/02/25 10:06:07;;;;;;;;;20.75;17.50;;;;;17.91;55.63;101005.78;146618;565;45024;-72
2024/02/25 10:09:08;;;;;;;;;21.25;18.75;;;;;17.94;56.54;100996.28;146617;575;47010;-73
2024/02/25 10:12:11;;;;;;;;;28.50;26.75;;;;;17.95;55.90;100986.66;146615;613;46012;-72
2024/02/25 10:15:08;;;;;;;;;34.25;30.00;;;;;18.09;56.21;100990.50;146617;605;46020;-74
2024/02/25 10:18:20;;;;;;;;;35.75;31.00;;;;;15.94;55.30;100609.34;146617;626;46013;-73
2024/02/25 10:21:22;;;;;;;;;43.00;34.00;;;;;18.09;56.02;100979.13;146618;590;46020;-73
2024/02/25 10:24:36;;;;;;;;;31.75;30.00;;;;;18.10;56.26;100971.31;146613;598;46017;-72
2024/02/25 10:27:48;;;;;;;;;;;;;;;;;;;;;
2024/02/25 10:31:07;;;;;;;;;30.75;25.00;;;;;18.24;56.57;100962.00;146614;602;46014;-74
2024/02/25 10:34:15;;;;;;;;;45.50;34.75;;;;;16.96;55.86;100700.16;146619;723;46020;-73
2024/02/25 10:37:20;;;;;;;;;30.75;29.00;;;;;18.73;55.30;100938.66;146609;590;46016;-73
2024/02/25 10:40:18;;;;;;;;;29.25;27.50;;;;;19.18;53.67;100936.91;146620;586;46021;-73
2024/02/25 10:43:22;;;;;;;;;31.50;27.75;;;;;19.59;53.81;100935.06;146614;718;46012;-73
2024/02/25 10:47:10;;;;;;;;;27.25;22.75;;;;;16.61;52.51;100343.22;146619;658;46021;-73
2024/02/25 10:50:05;;;;;;;;;25.00;24.00;;;;;20.37;51.83;100930.19;146614;593;46016;-73
2024/02/25 10:53:03;;;;;;;;;25.00;21.00;;;;;20.74;49.45;100932.50;146620;596;46010;-73
2024/02/25 10:56:19;;;;;;;;;;;;;;;;;;;;;
2024/02/25 10:59:14;;;;;;;;;29.00;26.75;;;;;21.27;47.69;100920.81;146613;616;46020;-73
2024/02/25 11:02:14;;;;;;;;;24.50;22.00;;;;;21.50;47.28;100914.97;146614;592;46017;-73
2024/02/25 11:05:24;;;;;;;;;14.75;13.75;;;;;21.49;45.57;100903.50;146616;604;46010;-72
2024/02/25 11:08:38;;;;;;;;;17.50;17.00;;;;;21.37;46.36;100893.72;146614;574;47013;-71
2024/02/25 11:11:44;;;;;;;;;22.25;19.50;;;;;21.36;46.61;100877.87;146621;581;46010;-72
2024/02/25 11:14:40;;;;;;;;;9.25;9.00;;;;;21.38;43.44;100876.16;146616;633;46012;-73
2024/02/25 11:18:08;;;;;;;;;11.25;9.75;;;;;21.40;41.86;100864.75;146621;572;46010;-72
2024/02/25 11:21:27;;;;;;;;;14.00;14.00;;;;;21.46;45.08;100866.53;146617;647;46016;-72
2024/02/25 11:24:54;;;;;;;;;6.75;6.25;;;;;19.81;45.01;100565.34;146619;577;47012;-71
2024/02/25 11:28:37;;;;;;;;;11.00;10.00;;;;;21.50;44.54;100851.63;146619;600;46016;-72
2024/02/25 11:32:05;;;;;;;;;11.50;8.00;;;;;19.87;45.72;100541.75;146620;601;46012;-72
2024/02/25 11:35:03;;;;;;;;;9.00;7.75;;;;;21.82;41.96;100839.56;146618;670;46016;-72
2024/02/25 11:38:39;;;;;;;;;11.00;10.25;;;;;21.88;41.47;100857.22;146621;590;46011;-71
2024/02/25 11:41:58;;;;;;;;;13.00;12.00;;;;;20.28;44.69;100557.94;146614;639;46016;-70
2024/02/25 11:45:02;;;;;;;;;14.00;12.00;;;;;21.91;42.36;100847.56;146617;646;46020;-70
2024/02/25 11:47:58;;;;;;;;;13.00;12.50;;;;;21.90;41.75;100837.88;146615;661;46017;-72
2024/02/25 11:50:58;;;;;;;;;13.75;12.50;;;;;21.85;41.09;100846.63;146620;571;46020;-70
2024/02/25 11:54:04;;;;;;;;;15.00;13.00;;;;;21.69;43.56;100816.59;146607;628;48913;-69
2024/02/25 11:57:04;;;;;;;;;11.75;10.00;;;;;21.63;43.64;100822.72;146617;595;46020;-71
2024/02/25 12:00:21;;;;;;;;;13.25;12.00;;;;;21.12;45.19;100805.56;146615;655;46012;-72
2024/02/25 12:03:18;;;;;;;;;11.50;10.75;;;;;21.29;41.54;100800.41;146633;584;46010;-69
2024/02/25 12:06:37;;;;;;;;;12.75;10.50;;;;;21.13;42.73;100798.53;146632;597;47913;-72
2024/02/25 12:09:47;;;;;;;;;10.75;9.50;;;;;21.08;40.79;100785.28;146633;595;46011;-73
2024/02/25 12:12:49;;;;;;;;;5.25;5.25;;;;;21.16;40.68;100777.47;146629;595;45035;-71
2024/02/25 12:15:45;;;;;;;;;14.50;12.50;;;;;21.37;41.76;100772.41;146635;613;46021;-71
2024/02/25 12:18:46;;;;;;;;;10.00;8.75;;;;;21.63;39.57;100769.06;146629;624;45913;-72
2024/02/25 12:21:52;;;;;;;;;8.25;7.00;;;;;19.65;43.69;100432.78;146634;570;45020;-71
2024/02/25 12:24:54;;;;;;;;;9.00;8.75;;;;;21.91;39.52;100760.44;146635;574;45016;-68
2024/02/25 12:27:53;;;;;;;;;7.75;6.75;;;;;21.94;38.63;100749.00;146635;615;45020;-72
2024/02/25 12:31:05;;;;;;;;;14.00;13.00;;;;;21.99;41.50;100754.31;146631;683;46013;-71
2024/02/25 12:34:04;;;;;;;;;10.25;10.00;;;;;21.92;41.52;100743.72;146635;590;46010;-71
2024/02/25 12:37:03;;;;;;;;;10.00;9.00;;;;;21.82;39.80;100746.31;146633;701;45016;-75
2024/02/25 12:40:05;;;;;;;;;11.00;8.00;;;;;21.67;40.59;100745.31;146634;680;46026;-70
2024/02/25 12:43:09;;;;;;;;;5.00;5.00;;;;;21.61;42.15;100734.72;146633;596;45034;-71
2024/02/25 12:46:20;;;;;;;;;;;;;;;;;;;;;
2024/02/25 12:49:27;;;;;;;;;9.50;8.75;;;;;21.66;41.06;100725.09;146633;653;45012;-82
2024/02/25 12:52:25;;;;;;;;;8.25;7.50;;;;;21.67;40.82;100720.69;146638;571;45010;-72
2024/02/25 12:55:19;;;;;;;;;7.75;6.75;;;;;21.67;40.85;100710.16;146628;613;47914;-72
2024/02/25 12:58:24;;;;;;;;;10.75;10.00;;;;;21.64;41.31;100711.00;146632;685;45020;-73
2024/02/25 13:01:16;;;;;;;;;7.00;6.00;;;;;21.54;38.15;100698.63;146625;578;46016;-73
2024/02/25 13:04:12;;;;;;;;;6.67;6.67;;;;;21.38;39.05;100689.75;146616;631;46913;-71
2024/02/25 13:07:06;;;;;;;;;11.25;10.75;;;;;21.24;41.46;100680.81;146619;722;47012;-72
2024/02/25 13:10:05;;;;;;;;;10.50;8.50;;;;;21.08;40.05;100671.03;146618;617;46021;-72
2024/02/25 13:13:02;;;;;;;;;9.00;9.00;;;;;20.94;40.49;100670.94;146616;574;46016;-73
2024/02/25 13:16:05;;;;;;;;;11.00;9.00;;;;;20.86;41.63;100672.62;146619;569;46021;-74
2024/02/25 13:19:06;;;;;;;;;10.00;9.75;;;;;20.75;40.53;100667.28;146617;618;46012;-73
2024/02/25 13:22:01;;;;;;;;;10.25;9.00;;;;;20.61;41.14;100656.59;146615;672;47010;-72
2024/02/25 13:25:00;;;;;;;;;11.75;11.50;;;;;20.48;41.62;100652.06;146615;634;47012;-71
2024/02/25 13:27:58;;;;;;;;;9.75;9.75;;;;;20.34;41.73;100654.53;146613;708;46020;-73
2024/02/25 13:31:00;;;;;;;;;10.50;10.50;;;;;20.24;43.08;100652.69;146620;667;46016;-74
2024/02/25 13:34:12;;;;;;;;;14.75;12.75;;;;;20.19;43.80;100644.75;146613;608;46020;-73
2024/02/25 13:37:10;;;;;;;;;13.25;11.50;;;;;20.12;43.36;100642.88;146612;621;46017;-71
2024/02/25 13:40:06;;;;;;;;;11.00;10.75;;;;;20.05;43.12;100652.47;146617;614;47010;-73
2024/02/25 13:43:14;;;;;;;;;9.75;9.00;;;;;19.91;44.42;100640.91;146616;650;47015;-74
2024/02/25 13:46:22;;;;;;;;;11.25;10.00;;;;;19.70;44.36;100630.13;146622;619;46020;-74
2024/02/25 13:49:18;;;;;;;;;10.50;10.50;;;;;19.52;45.25;100630.72;146619;569;45911;-73
2024/02/25 13:52:11;;;;;;;;;8.00;8.00;;;;;19.40;45.36;100636.72;146624;653;45020;-74
2024/02/25 13:55:35;;;;;;;;;11.00;10.00;;;;;19.33;46.57;100632.22;146617;566;46016;-72
2024/02/25 13:58:46;;;;;;;;;13.75;12.25;;;;;19.27;45.80;100622.50;146621;703;46020;-74
2024/02/25 14:01:44;;;;;;;;;10.25;9.75;;;;;19.28;45.55;100618.12;146615;623;46016;-75
2024/02/25 14:04:53;;;;;;;;;7.75;7.75;;;;;19.29;43.78;100609.41;146623;622;46010;-72
2024/02/25 14:07:49;;;;;;;;;8.00;7.75;;;;;19.31;45.77;100608.53;146620;582;45911;-73